createdAt,value
2018-09-18T00:01:40.853Z,5.50
2018-09-18T00:04:08.174Z,4.50
2018-09-18T00:06:35.502Z,4.60
2018-09-18T00:09:03.218Z,4.50
2018-09-18T00:11:30.567Z,4.83
2018-09-18T00:13:57.859Z,4.50
2018-09-18T00:16:25.173Z,5.33
2018-09-18T00:18:52.484Z,5.27
2018-09-18T00:21:19.771Z,5.37
2018-09-18T00:23:47.087Z,5.07
2018-09-18T00:26:14.375Z,5.00
2018-09-18T00:28:41.694Z,5.13
2018-09-18T00:31:09.006Z,5.20
2018-09-18T00:33:36.287Z,5.40
2018-09-18T00:36:03.566Z,5.40
2018-09-18T00:38:30.883Z,5.67
2018-09-18T00:40:58.473Z,5.10
2018-09-18T00:43:25.783Z,5.40
2018-09-18T00:45:53.071Z,5.57
2018-09-18T00:48:20.371Z,5.67
2018-09-18T00:50:47.682Z,5.27
2018-09-18T00:53:14.968Z,5.23
2018-09-18T00:55:42.254Z,5.97
2018-09-18T00:58:09.570Z,5.00
2018-09-18T01:00:36.850Z,5.03
2018-09-18T01:03:04.174Z,5.50
2018-09-18T01:05:31.448Z,6.97
2018-09-18T01:07:58.754Z,4.90
2018-09-18T01:10:26.046Z,5.30
2018-09-18T01:12:53.357Z,4.87
2018-09-18T01:15:20.657Z,6.20
2018-09-18T01:17:47.950Z,5.80
2018-09-18T01:20:15.229Z,5.33
2018-09-18T01:22:42.533Z,5.33
2018-09-18T01:25:09.822Z,5.10
2018-09-18T01:27:37.119Z,5.50
2018-09-18T01:30:04.450Z,5.27
2018-09-18T01:32:31.734Z,5.67
2018-09-18T01:34:59.014Z,5.00
2018-09-18T01:37:26.309Z,5.13
2018-09-18T01:39:53.636Z,5.60
2018-09-18T01:42:20.922Z,4.77
2018-09-18T01:44:48.210Z,5.23
2018-09-18T01:47:15.514Z,5.07
2018-09-18T01:49:42.800Z,5.43
2018-09-18T01:52:10.115Z,5.10
2018-09-18T01:54:37.394Z,5.63
2018-09-18T01:57:04.950Z,5.40
2018-09-18T01:59:32.267Z,5.70
2018-09-18T02:01:59.555Z,5.17
2018-09-18T02:04:26.878Z,5.13
2018-09-18T02:06:54.192Z,5.40
2018-09-18T02:09:21.534Z,5.03
2018-09-18T02:11:48.819Z,6.20
2018-09-18T02:14:16.107Z,4.67
2018-09-18T02:16:43.416Z,5.07
2018-09-18T02:19:10.698Z,5.90
2018-09-18T02:21:37.995Z,5.50
2018-09-18T02:24:05.291Z,5.40
2018-09-18T02:26:32.606Z,5.77
2018-09-18T02:28:59.901Z,5.60
2018-09-18T02:31:27.210Z,5.70
2018-09-18T02:33:54.507Z,5.40
2018-09-18T02:36:21.842Z,5.57
2018-09-18T02:38:49.138Z,5.13
2018-09-18T02:41:16.418Z,5.70
2018-09-18T02:43:43.723Z,5.90
2018-09-18T02:46:11.051Z,6.87
2018-09-18T02:48:38.333Z,5.90
2018-09-18T02:51:05.637Z,5.83
2018-09-18T02:53:32.942Z,5.97
2018-09-18T02:56:00.238Z,5.57
2018-09-18T02:58:27.549Z,6.90
2018-09-18T03:00:54.842Z,13.60
2018-09-18T03:03:22.174Z,5.93
2018-09-18T03:05:49.482Z,6.50
2018-09-18T03:08:17.326Z,6.30
2018-09-18T03:10:44.621Z,6.70
2018-09-18T03:13:11.932Z,6.77
2018-09-18T03:15:39.215Z,6.20
2018-09-18T03:18:06.669Z,6.40
2018-09-18T03:20:33.958Z,6.33
2018-09-18T03:23:01.272Z,5.90
2018-09-18T03:25:28.555Z,6.07
2018-09-18T03:27:55.883Z,6.73
2018-09-18T03:30:23.154Z,6.33
2018-09-18T03:32:50.453Z,6.37
2018-09-18T03:35:17.788Z,6.63
2018-09-18T03:37:45.121Z,5.93
2018-09-18T03:40:12.414Z,6.63
2018-09-18T03:42:39.734Z,6.60
2018-09-18T03:45:07.053Z,5.77
2018-09-18T03:47:34.318Z,6.60
2018-09-18T03:50:01.614Z,6.53
2018-09-18T03:52:28.899Z,7.57
2018-09-18T03:54:56.201Z,7.13
2018-09-18T03:57:23.504Z,6.50
2018-09-18T03:59:50.802Z,9.60
2018-09-18T04:02:18.111Z,5.73
2018-09-18T04:04:45.468Z,6.20
2018-09-18T04:07:12.834Z,7.57
2018-09-18T04:09:40.134Z,6.53
2018-09-18T04:12:07.480Z,6.47
2018-09-18T04:14:34.801Z,6.97
2018-09-18T04:17:02.087Z,7.07
2018-09-18T04:19:29.371Z,6.30
2018-09-18T04:21:56.664Z,6.73
2018-09-18T04:24:23.993Z,6.70
2018-09-18T04:26:51.267Z,6.30
2018-09-18T04:29:18.550Z,7.70
2018-09-18T04:31:45.870Z,6.53
2018-09-18T04:34:13.210Z,6.87
2018-09-18T04:36:40.493Z,6.73
2018-09-18T04:39:08.306Z,6.77
2018-09-18T04:41:35.609Z,6.30
2018-09-18T04:44:02.918Z,6.73
2018-09-18T04:46:30.218Z,6.90
2018-09-18T04:48:57.533Z,7.23
2018-09-18T04:51:24.815Z,6.70
2018-09-18T04:53:52.111Z,7.00
2018-09-18T04:56:19.401Z,7.83
2018-09-18T04:58:46.707Z,6.70
2018-09-18T05:01:13.990Z,7.40
2018-09-18T05:03:41.282Z,9.03
2018-09-18T05:06:08.588Z,7.60
2018-09-18T05:08:35.874Z,6.47
2018-09-18T05:11:03.174Z,7.07
2018-09-18T05:13:30.566Z,6.30
2018-09-18T05:15:57.900Z,6.77
2018-09-18T05:18:25.194Z,7.70
2018-09-18T05:20:52.533Z,6.60
2018-09-18T05:23:19.822Z,7.10
2018-09-18T05:25:47.118Z,8.63
2018-09-18T05:28:14.437Z,6.80
2018-09-18T05:30:41.777Z,7.67
2018-09-18T05:33:09.069Z,7.77
2018-09-18T05:35:36.390Z,7.90
2018-09-18T05:38:03.702Z,7.87
2018-09-18T05:40:31.381Z,10.37
2018-09-18T05:42:58.876Z,7.83
2018-09-18T05:45:26.290Z,7.27
2018-09-18T05:47:53.581Z,7.80
2018-09-18T05:50:21.045Z,9.10
2018-09-18T05:52:48.351Z,8.30
2018-09-18T05:55:15.640Z,8.60
2018-09-18T05:57:42.940Z,8.87
2018-09-18T06:00:10.243Z,8.07
2018-09-18T06:02:37.554Z,8.40
2018-09-18T06:05:04.843Z,8.20
2018-09-18T06:07:32.148Z,8.50
2018-09-18T06:09:59.470Z,10.70
2018-09-18T06:12:26.820Z,8.97
2018-09-18T06:14:54.083Z,10.80
2018-09-18T06:17:21.389Z,8.93
2018-09-18T06:19:48.705Z,9.60
2018-09-18T06:22:16.009Z,10.83
2018-09-18T06:24:43.320Z,9.10
2018-09-18T06:27:10.602Z,10.60
2018-09-18T06:29:37.917Z,10.40
2018-09-18T06:32:05.240Z,9.53
2018-09-18T06:34:32.534Z,8.83
2018-09-18T06:36:59.866Z,9.37
2018-09-18T06:39:27.142Z,11.47
2018-09-18T06:41:54.466Z,9.40
2018-09-18T06:44:21.758Z,9.10
2018-09-18T06:46:49.057Z,8.77
2018-09-18T06:49:16.359Z,10.30
2018-09-18T06:51:43.691Z,9.67
2018-09-18T06:54:10.998Z,9.20
2018-09-18T06:56:38.295Z,9.63
2018-09-18T06:59:05.630Z,8.80
2018-09-18T07:01:32.952Z,8.90
2018-09-18T07:04:00.257Z,9.10
2018-09-18T07:06:27.565Z,8.47
2018-09-18T07:08:54.862Z,9.33
2018-09-18T07:11:22.158Z,8.50
2018-09-18T07:13:49.468Z,10.47
2018-09-18T07:16:16.757Z,10.27
2018-09-18T07:18:44.057Z,9.67
2018-09-18T07:21:11.354Z,8.30
2018-09-18T07:23:38.667Z,8.93
2018-09-18T07:26:06.152Z,9.70
2018-09-18T07:28:33.457Z,9.10
2018-09-18T07:31:00.817Z,11.47
2018-09-18T07:33:28.137Z,11.13
2018-09-18T07:35:55.442Z,13.93
2018-09-18T07:38:22.748Z,10.37
2018-09-18T07:40:50.123Z,12.50
2018-09-18T07:43:17.368Z,11.63
2018-09-18T07:45:44.651Z,13.93
2018-09-18T07:48:11.966Z,16.10
2018-09-18T07:50:39.360Z,15.90
2018-09-18T07:53:06.675Z,15.63
2018-09-18T07:55:33.981Z,13.23
2018-09-18T07:58:01.272Z,14.67
2018-09-18T08:00:28.617Z,15.20
2018-09-18T08:02:55.933Z,14.23
2018-09-18T08:05:23.235Z,17.70
2018-09-18T08:07:50.534Z,15.10
2018-09-18T08:10:17.889Z,18.43
2018-09-18T08:12:45.162Z,12.63
2018-09-18T08:15:12.466Z,20.40
2018-09-18T08:17:39.766Z,19.37
2018-09-18T08:20:07.075Z,22.20
2018-09-18T08:22:34.374Z,15.57
2018-09-18T08:25:01.753Z,13.43
2018-09-18T08:27:28.991Z,14.10
2018-09-18T08:29:56.316Z,10.70
2018-09-18T08:32:23.624Z,10.70
2018-09-18T08:34:50.932Z,11.00
2018-09-18T08:37:18.251Z,11.83
2018-09-18T08:39:45.609Z,10.57
2018-09-18T08:42:12.855Z,12.13
2018-09-18T08:44:40.175Z,11.50
2018-09-18T08:47:07.722Z,13.80
2018-09-18T08:49:35.016Z,14.67
2018-09-18T08:52:02.397Z,18.50
2018-09-18T08:54:29.641Z,13.23
2018-09-18T08:56:56.946Z,12.87
2018-09-18T08:59:24.256Z,8.90
2018-09-18T09:01:51.562Z,11.10
2018-09-18T09:04:18.934Z,10.70
2018-09-18T09:06:46.219Z,10.10
2018-09-18T09:09:13.532Z,9.40
2018-09-18T09:11:40.810Z,9.00
2018-09-18T09:14:08.097Z,10.53
2018-09-18T09:16:35.458Z,9.27
2018-09-18T09:19:02.809Z,9.50
2018-09-18T09:21:30.154Z,16.87
2018-09-18T09:26:31.335Z,8.73
2018-09-18T09:28:58.652Z,17.00
2018-09-18T09:31:25.938Z,11.80
2018-09-18T09:33:53.296Z,10.27
2018-09-18T09:36:20.660Z,8.33
2018-09-18T09:38:48.045Z,13.90
2018-09-18T09:41:15.301Z,13.03
2018-09-18T09:43:42.765Z,8.63
2018-09-18T09:46:10.026Z,10.17
2018-09-18T09:48:37.383Z,11.80
2018-09-18T09:51:04.780Z,15.47
2018-09-18T09:53:32.035Z,13.83
2018-09-18T09:55:59.372Z,9.00
2018-09-18T09:58:26.726Z,16.10
2018-09-18T10:00:54.046Z,19.10
2018-09-18T10:03:21.367Z,12.23
2018-09-18T10:05:48.709Z,11.43
2018-09-18T10:08:16.459Z,10.40
2018-09-18T10:10:43.851Z,12.70
2018-09-18T10:13:11.415Z,8.67
2018-09-18T10:15:38.794Z,14.17
2018-09-18T10:18:06.123Z,8.43
2018-09-18T10:20:33.436Z,10.60
2018-09-18T10:23:00.743Z,9.77
2018-09-18T10:25:28.075Z,9.07
2018-09-18T10:27:55.452Z,8.33
2018-09-18T10:30:23.161Z,8.10
2018-09-18T10:32:50.578Z,8.20
2018-09-18T10:35:17.826Z,9.00
2018-09-18T10:37:45.186Z,7.27
2018-09-18T10:40:12.543Z,8.20
2018-09-18T10:42:39.839Z,7.33
2018-09-18T10:45:07.615Z,7.70
2018-09-18T10:47:34.945Z,7.67
2018-09-18T10:50:02.323Z,7.37
2018-09-18T10:52:29.683Z,7.00
2018-09-18T10:54:57.044Z,8.17
2018-09-18T10:57:24.371Z,7.13
2018-09-18T10:59:51.700Z,7.30
2018-09-18T11:02:19.147Z,8.23
2018-09-18T11:04:46.390Z,6.93
2018-09-18T11:07:13.721Z,9.20
2018-09-18T11:09:41.072Z,7.40
2018-09-18T11:12:08.339Z,6.63
2018-09-18T11:14:35.691Z,8.43
2018-09-18T11:17:02.967Z,9.87
2018-09-18T11:19:30.323Z,7.00
2018-09-18T11:21:57.630Z,8.80
2018-09-18T11:24:25.054Z,7.73
2018-09-18T11:26:52.458Z,8.37
2018-09-18T11:29:19.780Z,7.73
2018-09-18T11:31:53.754Z,7.43
2018-09-18T11:34:21.141Z,7.33
2018-09-18T11:36:48.426Z,7.10
2018-09-18T11:39:15.731Z,11.73
2018-09-18T11:41:43.067Z,9.00
2018-09-18T11:44:10.404Z,8.90
2018-09-18T11:46:37.792Z,8.60
2018-09-18T11:49:05.182Z,7.33
2018-09-18T11:51:32.510Z,6.90
2018-09-18T11:53:59.828Z,13.40
2018-09-18T11:56:27.158Z,7.87
2018-09-18T11:58:54.791Z,11.83
2018-09-18T12:01:22.128Z,8.83
2018-09-18T12:03:49.485Z,8.57
2018-09-18T12:06:16.819Z,7.87
2018-09-18T12:08:44.177Z,8.33
2018-09-18T12:11:11.474Z,9.20
2018-09-18T12:13:38.784Z,11.60
2018-09-18T12:16:06.486Z,8.37
2018-09-18T12:18:33.915Z,12.00
2018-09-18T12:21:01.233Z,7.13
2018-09-18T12:23:28.543Z,8.70
2018-09-18T12:25:55.878Z,10.53
2018-09-18T12:28:23.170Z,7.60
2018-09-18T12:30:50.470Z,12.50
2018-09-18T12:33:17.853Z,10.23
2018-09-18T12:35:45.167Z,7.93
2018-09-18T12:38:12.422Z,14.47
2018-09-18T12:40:39.786Z,7.37
2018-09-18T12:43:07.110Z,7.27
2018-09-18T12:45:34.410Z,7.33
2018-09-18T12:48:01.732Z,7.00
2018-09-18T12:50:29.112Z,6.60
2018-09-18T12:52:56.330Z,6.87
2018-09-18T12:55:23.638Z,7.47
2018-09-18T12:57:50.935Z,7.50
2018-09-18T13:00:18.322Z,7.40
2018-09-18T13:02:45.555Z,7.80
2018-09-18T13:05:12.882Z,6.87
2018-09-18T13:07:40.202Z,8.70
2018-09-18T13:10:07.557Z,7.27
2018-09-18T13:12:34.872Z,8.47
2018-09-18T13:15:02.167Z,7.10
2018-09-18T13:17:29.627Z,6.70
2018-09-18T13:19:56.817Z,6.67
2018-09-18T13:22:24.245Z,6.20
2018-09-18T13:24:51.551Z,7.63
2018-09-18T13:27:18.863Z,8.57
2018-09-18T13:29:46.147Z,6.83
2018-09-18T13:32:13.456Z,7.47
2018-09-18T13:34:40.788Z,6.83
2018-09-18T13:37:08.094Z,9.83
2018-09-18T13:39:35.387Z,5.90
2018-09-18T13:42:02.697Z,6.17
2018-09-18T13:44:29.994Z,5.47
2018-09-18T13:46:57.306Z,5.80
2018-09-18T13:49:24.635Z,6.70
2018-09-18T13:51:51.963Z,5.70
2018-09-18T13:54:19.289Z,7.83
2018-09-18T13:56:46.679Z,5.70
2018-09-18T13:59:13.892Z,5.80
2018-09-18T14:01:41.417Z,5.80
2018-09-18T14:04:08.612Z,6.10
2018-09-18T14:06:35.944Z,5.30
2018-09-18T14:09:04.624Z,6.67
2018-09-18T14:11:31.903Z,5.90
2018-09-18T14:13:59.190Z,5.80
2018-09-18T14:16:26.518Z,5.97
2018-09-18T14:18:53.863Z,6.10
2018-09-18T14:21:21.164Z,5.70
2018-09-18T14:23:48.446Z,5.60
2018-09-18T14:26:15.820Z,5.67
2018-09-18T14:28:43.102Z,5.57
2018-09-18T14:31:10.434Z,5.73
2018-09-18T14:33:37.737Z,5.87
2018-09-18T14:36:05.044Z,7.27
2018-09-18T14:38:32.327Z,6.73
2018-09-18T14:40:59.670Z,5.90
2018-09-18T14:43:26.955Z,6.20
2018-09-18T14:45:54.234Z,6.10
2018-09-18T14:48:21.618Z,8.73
2018-09-18T14:50:48.910Z,6.30
2018-09-18T14:53:16.285Z,6.93
2018-09-18T14:55:43.594Z,6.17
2018-09-18T14:58:10.892Z,6.90
2018-09-18T15:00:38.250Z,6.37
2018-09-18T15:03:05.506Z,7.07
2018-09-18T15:05:32.845Z,8.20
2018-09-18T15:08:01.146Z,6.27
2018-09-18T15:10:28.441Z,8.10
2018-09-18T15:13:02.441Z,8.00
2018-09-18T15:15:29.782Z,6.33
2018-09-18T15:17:57.077Z,6.80
2018-09-18T15:20:24.559Z,5.83
2018-09-18T15:22:51.890Z,12.03
2018-09-18T15:25:19.213Z,6.17
2018-09-18T15:27:46.603Z,6.10
2018-09-18T15:30:13.950Z,6.13
2018-09-18T15:32:41.255Z,6.50
2018-09-18T15:35:08.608Z,6.63
2018-09-18T15:37:35.922Z,6.30
2018-09-18T15:40:03.295Z,6.10
2018-09-18T15:42:30.593Z,6.67
2018-09-18T15:44:57.903Z,6.40
2018-09-18T15:47:25.223Z,6.90
2018-09-18T15:49:52.606Z,6.73
2018-09-18T15:52:19.898Z,5.70
2018-09-18T15:54:47.257Z,6.13
2018-09-18T15:57:14.569Z,5.67
2018-09-18T15:59:41.869Z,6.57
2018-09-18T16:02:09.172Z,6.47
2018-09-18T16:04:36.468Z,6.20
2018-09-18T16:07:03.772Z,6.30
2018-09-18T16:09:31.070Z,5.80
2018-09-18T16:11:58.369Z,5.20
2018-09-18T16:14:25.756Z,8.63
2018-09-18T16:16:53.052Z,5.83
2018-09-18T16:19:20.508Z,5.90
2018-09-18T16:21:47.827Z,6.10
2018-09-18T16:24:15.142Z,6.63
2018-09-18T16:26:42.442Z,5.67
2018-09-18T16:29:09.749Z,5.80
2018-09-18T16:31:37.074Z,5.20
2018-09-18T16:34:04.391Z,7.50
2018-09-18T16:36:31.734Z,5.63
2018-09-18T16:38:59.010Z,5.53
2018-09-18T16:41:26.358Z,6.10
2018-09-18T16:43:53.657Z,5.77
2018-09-18T16:46:20.965Z,6.67
2018-09-18T16:48:48.270Z,5.43
2018-09-18T16:51:15.595Z,5.77
2018-09-18T16:53:42.917Z,6.33
2018-09-18T16:56:10.186Z,7.10
2018-09-18T16:58:37.590Z,5.60
2018-09-18T17:01:04.842Z,5.93
2018-09-18T17:03:32.191Z,5.93
2018-09-18T17:05:59.503Z,5.90
2018-09-18T17:08:26.816Z,6.97
2018-09-18T17:10:54.121Z,5.77
2018-09-18T17:13:21.514Z,6.50
2018-09-18T17:15:49.120Z,6.60
2018-09-18T17:18:16.812Z,7.77
2018-09-18T17:20:44.128Z,6.70
2018-09-18T17:23:11.418Z,7.10
2018-09-18T17:25:38.798Z,6.40
2018-09-18T17:28:06.142Z,6.03
2018-09-18T17:30:33.480Z,6.43
2018-09-18T17:33:00.714Z,5.97
2018-09-18T21:30:38.102Z,9.73
2018-09-18T21:33:05.890Z,9.10
2018-09-18T21:35:33.212Z,9.00
2018-09-18T21:38:00.726Z,9.37
2018-09-18T21:40:28.043Z,10.70
2018-09-18T21:42:55.503Z,8.97
2018-09-18T21:45:22.971Z,9.20
2018-09-18T21:47:50.275Z,9.73
2018-09-18T21:50:17.751Z,8.67
2018-09-18T21:52:45.054Z,9.70
2018-09-18T21:55:12.355Z,10.00
2018-09-18T21:57:39.702Z,9.10
2018-09-18T22:00:07.018Z,9.37
2018-09-18T22:02:34.384Z,10.47
2018-09-18T22:05:01.815Z,10.23
2018-09-18T22:07:29.260Z,9.93
2018-09-18T22:09:56.569Z,10.23
2018-09-18T22:12:24.039Z,10.43
2018-09-18T22:14:51.333Z,9.50
2018-09-18T22:17:18.789Z,8.97
2018-09-18T22:19:46.089Z,10.07
2018-09-18T22:22:13.495Z,10.83
2018-09-18T22:24:40.728Z,10.70
2018-09-18T22:27:08.048Z,10.00
2018-09-18T22:29:35.532Z,10.53
2018-09-18T22:32:02.858Z,9.70
2018-09-18T22:34:30.474Z,9.50
2018-09-18T22:36:57.825Z,9.67
2018-09-18T22:39:25.273Z,10.07
2018-09-18T22:41:52.638Z,10.20
2018-09-18T22:44:19.960Z,9.80
2018-09-18T22:46:47.285Z,10.53
2018-09-18T22:49:14.659Z,9.50
2018-09-18T22:51:42.018Z,9.57
2018-09-18T22:54:09.393Z,9.30
2018-09-18T22:56:36.903Z,9.77
2018-09-18T22:59:04.508Z,9.43
2018-09-18T23:01:31.975Z,8.70
2018-09-18T23:03:59.356Z,9.47
2018-09-18T23:06:26.736Z,9.40
2018-09-18T23:08:54.076Z,8.60
2018-09-18T23:11:21.531Z,9.07
2018-09-18T23:13:48.903Z,8.87
2018-09-18T23:16:16.342Z,9.70
2018-09-18T23:18:43.748Z,9.33
2018-09-18T23:21:11.073Z,9.57
2018-09-18T23:23:39.063Z,9.70
2018-09-18T23:26:06.381Z,10.30
2018-09-18T23:28:33.686Z,9.80
2018-09-18T23:31:01.004Z,9.33
2018-09-18T23:33:28.319Z,8.67
2018-09-18T23:35:55.647Z,8.50
2018-09-18T23:38:22.981Z,8.97
2018-09-18T23:40:50.283Z,9.30
2018-09-18T23:43:17.579Z,9.73
2018-09-18T23:45:44.902Z,8.47
2018-09-18T23:48:12.211Z,9.43
2018-09-18T23:50:39.509Z,9.30
2018-09-18T23:53:06.833Z,9.13
2018-09-18T23:55:34.134Z,8.43
2018-09-18T23:58:01.533Z,9.20
